首页
METAR-TAF:

METAR-TAF

机场 :

Piedras Negras, 墨西哥

纬度: 28-42N, 经度: 100-31W, 海拔: 250米

当前天气观测

该预报发布于48分钟前的20:40 UTC
风速10节,风向东转东南
温度 29°C
湿度 43%
气压 1015 hPa
能見度: 16.1公里
天空无云

METAR: MMPG 212040Z 12010KT 10SM SKC 29/15 A2997 RMK HZ

时间: 15:28 (21:28 UTC)

预报

该预报发布于3小时和7分钟前的18:21 UTC
预报有效从21日的 18点(UTC)到 22日的 18点(UTC)
风速10节,风向东南
能見度: 10公里
天空无云
从 21日的 2100点(UTC)
风速15节,风向东南,有时为25节阵风
能見度: 9.7公里
天空无云
高吹尘
从 22日的 0300点(UTC)
风速12节,风向东南
能見度: 10公里
天空无云
短暂存在
从 22日的 11点(UTC)到 22日的 15点(UTC)
能見度: 0.1公里
层高于300英尺
从 22日的 1600点(UTC)
风速5节,风向
能見度: 10公里
散云层高于1500英尺

TAF: MMPG 211821Z 2118/2218 14010KT P6SM SKC FM212100 14015G25KT 6SM BLDU SKC FM220300 13012KT P6SM SKC TEMPO 2211/2215 1/16SM FG VV003 FM221600 36005KT P6SM SCT015

超过4000个机场的气象观测和天气预报(METAR&TAF报告)。

可查询的气象台以黄色和红色小点在地图上表示。

将鼠标移到小点上方,可查看气象台名称。

然后点击查看天气观测和预报。

如需切换地图:点击带黑十字的绿色按钮放大地图;点击带横线的绿色按钮缩小地图;或者点击绿色箭头查看邻近地区的地图。


METAR-TAF: